Mt Bomar Mars — 9HCM9 — position and weather

sailwx.info

Track history (hours):
 
Tides and Currents Weather Stations Pressure Air Temp Water Temp Dewpoint Dewpoint Depression Visibility Wind Speed Wind Dir Waves Ship Positions

Mt Bomar Mars

Last reported at 2017-Jan-24 20:30 UTC. Time now 2017-Jan-24 21:28 UTC.
Position N 51°46' E 003°20'.

Length 107 m; draft 6.8 m.

Type: Ship. MMSI: 256784000.

Date/timePositionNaut miles runAvg speedWind from/ knotsBaromVisibWave heightAir tempDewpointWater temp
2017-Jan-24 20:30N 51°46' E 003°20'0 0.0
2017-Jan-24 19:33N 51°46' E 003°20'0 0.0
2017-Jan-24 18:27N 51°46' E 003°20'0 0.0
2017-Jan-24 17:30N 51°46' E 003°20'0 0.1
2017-Jan-24 16:21N 51°46' E 003°20'0 0.1
2017-Jan-24 15:12N 51°46' E 003°20'0 0.0
2017-Jan-24 14:27N 51°46' E 003°21'0 0.0
2017-Jan-24 13:30N 51°46' E 003°21'0 0.0
2017-Jan-24 10:24N 51°46' E 003°21'0 0.1
2017-Jan-24 09:27N 51°46' E 003°21'0 0.1
2017-Jan-24 08:12N 51°46' E 003°20'0 0.0
2017-Jan-24 07:15N 51°46' E 003°20'0 0.0
2017-Jan-24 04:28N 51°46' E 003°20'0 0.1
2017-Jan-24 03:25N 51°46' E 003°21'0 0.1
2017-Jan-24 02:33N 51°46' E 003°21'0 0.0
2017-Jan-24 01:31N 51°46' E 003°21'0 0.0
2017-Jan-24 00:30N 51°46' E 003°21'0 0.0
2017-Jan-23 23:30N 51°46' E 003°21'0 0.0
2017-Jan-23 16:24N 51°46' E 003°21'0 0.1
2017-Jan-23 15:21N 51°46' E 003°21'0 0.0
2017-Jan-23 14:27N 51°46' E 003°21'0 0.0
2017-Jan-23 12:30N 51°46' E 003°21'0 0.0
2017-Jan-23 11:33N 51°46' E 003°21'0 0.0
2017-Jan-23 10:30N 51°46' E 003°21'0 0.0
2017-Jan-23 09:33N 51°46' E 003°21'0 0.0
2017-Jan-23 08:33N 51°46' E 003°21'0 0.1
2017-Jan-23 07:30N 51°46' E 003°21'0 0.1
2017-Jan-23 06:33N 51°46' E 003°20'0 0.0
2017-Jan-23 05:24N 51°46' E 003°20'0 0.0
2017-Jan-23 04:31N 51°46' E 003°20'0 0.0
2017-Jan-23 03:25N 51°46' E 003°20'0 0.1
2017-Jan-23 02:33N 51°46' E 003°20'0 0.0
2017-Jan-23 01:33N 51°46' E 003°21'0 0.0
2017-Jan-23 00:27N 51°46' E 003°21'0 0.0
2017-Jan-22 23:19N 51°46' E 003°21'0 0.0
2017-Jan-22 22:33N 51°46' E 003°21'0 0.0
2017-Jan-22 21:33N 51°46' E 003°21'0 0.0
2017-Jan-22 20:33N 51°46' E 003°21'0 0.1
2017-Jan-22 19:33N 51°46' E 003°21'0 0.0
2017-Jan-22 16:07N 51°46' E 003°20'0 0.0
2017-Jan-22 15:19N 51°46' E 003°20'0 0.1
2017-Jan-22 14:33N 51°46' E 003°21'0 0.1
2017-Jan-22 13:33N 51°46' E 003°21'0 0.0
2017-Jan-22 12:33N 51°46' E 003°21'0 0.0
2017-Jan-22 11:33N 51°46' E 003°21'0 0.0
2017-Jan-22 10:33N 51°46' E 003°21'0 0.0
2017-Jan-22 09:33N 51°46' E 003°21'0 0.0
2017-Jan-22 08:33N 51°46' E 003°21'0 0.0
2017-Jan-22 07:33N 51°46' E 003°21'0 0.1
2017-Jan-22 06:33N 51°46' E 003°21'0 0.1
2017-Jan-22 05:21N 51°46' E 003°20'0 0.0
2017-Jan-22 04:30N 51°46' E 003°20'0 0.0
2017-Jan-22 03:33N 51°46' E 003°20'0 0.0
2017-Jan-22 02:33N 51°46' E 003°20'0 0.1
2017-Jan-22 00:33N 51°46' E 003°21'0 0.0
2017-Jan-21 23:33N 51°46' E 003°21'0 0.0
2017-Jan-21 22:31N 51°46' E 003°21'0 0.0
2017-Jan-21 21:33N 51°46' E 003°21'0 0.0
2017-Jan-21 20:33N 51°46' E 003°21'0 0.0
2017-Jan-21 19:30N 51°46' E 003°21'0 0.1
2017-Jan-21 18:30N 51°46' E 003°20'84 8.4
2017-Jan-21 08:33N 52°54' E 001°60'9 9.3
2017-Jan-21 07:33N 52°59' E 001°47'10 9.5
2017-Jan-21 06:33N 53°04' E 001°33'10 9.9
2017-Jan-21 05:33N 53°10' E 001°20'2510.1
2017-Jan-21 03:06N 53°24' E 000°47'3610.1
2017-Jan-20 23:33N 53°38' W 000°09'2 2.1
2017-Jan-20 22:32N 53°39' W 000°12'0 0.0
2017-Jan-20 21:32N 53°39' W 000°12'0 0.0
2017-Jan-20 20:32N 53°39' W 000°12'0 0.0
2017-Jan-20 19:32N 53°39' W 000°12'0 0.0
2017-Jan-20 18:32N 53°39' W 000°12'0 0.0
2017-Jan-20 17:32N 53°39' W 000°12'0 0.0
2017-Jan-20 16:32N 53°39' W 000°12'0 0.0
2017-Jan-20 15:32N 53°39' W 000°12'0 0.0
2017-Jan-20 14:29N 53°39' W 000°12'0 0.0
2017-Jan-20 13:32N 53°39' W 000°12'0 0.0
2017-Jan-20 12:32N 53°39' W 000°12'0 0.0
2017-Jan-20 11:32N 53°39' W 000°12'0 0.0
2017-Jan-20 10:32N 53°39' W 000°12'0 0.0
2017-Jan-20 09:32N 53°39' W 000°12'0 0.0
2017-Jan-20 08:32N 53°39' W 000°12'0 0.0
2017-Jan-20 07:32N 53°39' W 000°12'0 0.0
2017-Jan-20 06:32N 53°39' W 000°12'0 0.0
2017-Jan-20 05:32N 53°39' W 000°12'0 0.0
2017-Jan-20 04:32N 53°39' W 000°12'0 0.0
2017-Jan-20 03:32N 53°39' W 000°12'0 0.0
2017-Jan-20 02:32N 53°39' W 000°12'0 0.0
2017-Jan-20 01:32N 53°39' W 000°12'0 0.0
2017-Jan-20 00:26N 53°39' W 000°12'1 0.6
2017-Jan-19 23:33N 53°39' W 000°11'8 8.1
2017-Jan-19 22:33N 53°35' E 000°01'1310.0
2017-Jan-19 21:17N 53°33' E 000°22'30 0.7
2017-Jan-18 05:33N 54°03' E 000°20'1111.2
2017-Jan-18 04:33N 54°14' E 000°20'10 9.5
2017-Jan-18 03:33N 54°24' E 000°17'9 9.5
2017-Jan-18 02:33N 54°30' E 000°05'9 8.9
2017-Jan-18 01:33N 54°35' W 000°07'8 8.4
2017-Jan-18 00:33N 54°40' W 000°19'7 0.2
2017-Jan-16 05:03N 54°39' W 000°30'510.8
2017-Jan-16 04:34N 54°39' W 000°21'1010.4
2017-Jan-16 03:34N 54°33' W 000°06'1211.9
2017-Jan-16 02:34N 54°23' E 000°07'1312.7
2017-Jan-16 01:33N 54°13' E 000°20'1313.2
2017-Jan-16 00:34N 54°03' E 000°34'5610.9
2017-Jan-15 19:26N 53°12' E 001°14'910.5
2017-Jan-15 18:34N 53°07' E 001°26'1212.0
2017-Jan-15 17:34N 52°60' E 001°43'1312.9
2017-Jan-15 16:34N 52°55' E 002°02'7911.3
2017-Jan-15 09:33N 52°05' E 003°43'1010.0
2017-Jan-15 08:33N 52°02' E 003°58'1312.8
2017-Jan-15 07:33N 51°55' E 004°15'3 2.5
2017-Jan-15 06:27N 51°53' E 004°19'0 0.0
2017-Jan-15 05:33N 51°53' E 004°19'0 0.0
2017-Jan-15 04:33N 51°53' E 004°19'0 0.0
2017-Jan-15 03:33N 51°53' E 004°19'0 0.0
2017-Jan-15 02:33N 51°53' E 004°19'0 0.0
2017-Jan-15 01:33N 51°53' E 004°19'0 0.0
2017-Jan-15 00:33N 51°53' E 004°19'0 0.0
2017-Jan-14 23:33N 51°53' E 004°19'0 0.0
2017-Jan-14 22:33N 51°53' E 004°19'0 0.0
2017-Jan-14 21:33N 51°53' E 004°19'0 0.0
2017-Jan-14 20:33N 51°53' E 004°19'  
Track history (hours):
 
Tides and Currents Weather Stations Pressure Air Temp Water Temp Dewpoint Dewpoint Depression Visibility Wind Speed Wind Dir Waves Ship Positions

Mt Bomar Mars

Last reported at 2017-Jan-24 20:30 UTC. Time now 2017-Jan-24 21:28 UTC.
Position N 51°46' E 003°20'.

Length 107 m; draft 6.8 m.

Type: Ship. MMSI: 256784000.

Date/timePositionNaut miles runAvg speedWind from/ knotsBaromVisibWave heightAir tempDewpointWater temp
2017-Jan-24 20:30N 51°46' E 003°20'0 0.0
2017-Jan-24 19:33N 51°46' E 003°20'0 0.0
2017-Jan-24 18:27N 51°46' E 003°20'0 0.0
2017-Jan-24 17:30N 51°46' E 003°20'0 0.1
2017-Jan-24 16:21N 51°46' E 003°20'0 0.1
2017-Jan-24 15:12N 51°46' E 003°20'0 0.0
2017-Jan-24 14:27N 51°46' E 003°21'0 0.0
2017-Jan-24 13:30N 51°46' E 003°21'0 0.0
2017-Jan-24 10:24N 51°46' E 003°21'0 0.1
2017-Jan-24 09:27N 51°46' E 003°21'0 0.1
2017-Jan-24 08:12N 51°46' E 003°20'0 0.0
2017-Jan-24 07:15N 51°46' E 003°20'0 0.0
2017-Jan-24 04:28N 51°46' E 003°20'0 0.1
2017-Jan-24 03:25N 51°46' E 003°21'0 0.1
2017-Jan-24 02:33N 51°46' E 003°21'0 0.0
2017-Jan-24 01:31N 51°46' E 003°21'0 0.0
2017-Jan-24 00:30N 51°46' E 003°21'0 0.0
2017-Jan-23 23:30N 51°46' E 003°21'0 0.0
2017-Jan-23 16:24N 51°46' E 003°21'0 0.1
2017-Jan-23 15:21N 51°46' E 003°21'0 0.0
2017-Jan-23 14:27N 51°46' E 003°21'0 0.0
2017-Jan-23 12:30N 51°46' E 003°21'0 0.0
2017-Jan-23 11:33N 51°46' E 003°21'0 0.0
2017-Jan-23 10:30N 51°46' E 003°21'0 0.0
2017-Jan-23 09:33N 51°46' E 003°21'0 0.0
2017-Jan-23 08:33N 51°46' E 003°21'0 0.1
2017-Jan-23 07:30N 51°46' E 003°21'0 0.1
2017-Jan-23 06:33N 51°46' E 003°20'0 0.0
2017-Jan-23 05:24N 51°46' E 003°20'0 0.0
2017-Jan-23 04:31N 51°46' E 003°20'0 0.0
2017-Jan-23 03:25N 51°46' E 003°20'0 0.1
2017-Jan-23 02:33N 51°46' E 003°20'0 0.0
2017-Jan-23 01:33N 51°46' E 003°21'0 0.0
2017-Jan-23 00:27N 51°46' E 003°21'0 0.0
2017-Jan-22 23:19N 51°46' E 003°21'0 0.0
2017-Jan-22 22:33N 51°46' E 003°21'0 0.0
2017-Jan-22 21:33N 51°46' E 003°21'0 0.0
2017-Jan-22 20:33N 51°46' E 003°21'0 0.1
2017-Jan-22 19:33N 51°46' E 003°21'0 0.0
2017-Jan-22 16:07N 51°46' E 003°20'0 0.0
2017-Jan-22 15:19N 51°46' E 003°20'0 0.1
2017-Jan-22 14:33N 51°46' E 003°21'0 0.1
2017-Jan-22 13:33N 51°46' E 003°21'0 0.0
2017-Jan-22 12:33N 51°46' E 003°21'0 0.0
2017-Jan-22 11:33N 51°46' E 003°21'0 0.0
2017-Jan-22 10:33N 51°46' E 003°21'0 0.0
2017-Jan-22 09:33N 51°46' E 003°21'0 0.0
2017-Jan-22 08:33N 51°46' E 003°21'0 0.0
2017-Jan-22 07:33N 51°46' E 003°21'0 0.1
2017-Jan-22 06:33N 51°46' E 003°21'0 0.1
2017-Jan-22 05:21N 51°46' E 003°20'0 0.0
2017-Jan-22 04:30N 51°46' E 003°20'0 0.0
2017-Jan-22 03:33N 51°46' E 003°20'0 0.0
2017-Jan-22 02:33N 51°46' E 003°20'0 0.1
2017-Jan-22 00:33N 51°46' E 003°21'0 0.0
2017-Jan-21 23:33N 51°46' E 003°21'0 0.0
2017-Jan-21 22:31N 51°46' E 003°21'0 0.0
2017-Jan-21 21:33N 51°46' E 003°21'0 0.0
2017-Jan-21 20:33N 51°46' E 003°21'0 0.0
2017-Jan-21 19:30N 51°46' E 003°21'0 0.1
2017-Jan-21 18:30N 51°46' E 003°20'84 8.4
2017-Jan-21 08:33N 52°54' E 001°60'9 9.3
2017-Jan-21 07:33N 52°59' E 001°47'10 9.5
2017-Jan-21 06:33N 53°04' E 001°33'10 9.9
2017-Jan-21 05:33N 53°10' E 001°20'2510.1
2017-Jan-21 03:06N 53°24' E 000°47'3610.1
2017-Jan-20 23:33N 53°38' W 000°09'2 2.1
2017-Jan-20 22:32N 53°39' W 000°12'0 0.0
2017-Jan-20 21:32N 53°39' W 000°12'0 0.0
2017-Jan-20 20:32N 53°39' W 000°12'0 0.0
2017-Jan-20 19:32N 53°39' W 000°12'0 0.0
2017-Jan-20 18:32N 53°39' W 000°12'0 0.0
2017-Jan-20 17:32N 53°39' W 000°12'0 0.0
2017-Jan-20 16:32N 53°39' W 000°12'0 0.0
2017-Jan-20 15:32N 53°39' W 000°12'0 0.0
2017-Jan-20 14:29N 53°39' W 000°12'0 0.0
2017-Jan-20 13:32N 53°39' W 000°12'0 0.0
2017-Jan-20 12:32N 53°39' W 000°12'0 0.0
2017-Jan-20 11:32N 53°39' W 000°12'0 0.0
2017-Jan-20 10:32N 53°39' W 000°12'0 0.0
2017-Jan-20 09:32N 53°39' W 000°12'0 0.0
2017-Jan-20 08:32N 53°39' W 000°12'0 0.0
2017-Jan-20 07:32N 53°39' W 000°12'0 0.0
2017-Jan-20 06:32N 53°39' W 000°12'0 0.0
2017-Jan-20 05:32N 53°39' W 000°12'0 0.0
2017-Jan-20 04:32N 53°39' W 000°12'0 0.0
2017-Jan-20 03:32N 53°39' W 000°12'0 0.0
2017-Jan-20 02:32N 53°39' W 000°12'0 0.0
2017-Jan-20 01:32N 53°39' W 000°12'0 0.0
2017-Jan-20 00:26N 53°39' W 000°12'1 0.6
2017-Jan-19 23:33N 53°39' W 000°11'8 8.1
2017-Jan-19 22:33N 53°35' E 000°01'1310.0
2017-Jan-19 21:17N 53°33' E 000°22'30 0.7
2017-Jan-18 05:33N 54°03' E 000°20'1111.2
2017-Jan-18 04:33N 54°14' E 000°20'10 9.5
2017-Jan-18 03:33N 54°24' E 000°17'9 9.5
2017-Jan-18 02:33N 54°30' E 000°05'9 8.9
2017-Jan-18 01:33N 54°35' W 000°07'8 8.4
2017-Jan-18 00:33N 54°40' W 000°19'7 0.2
2017-Jan-16 05:03N 54°39' W 000°30'510.8
2017-Jan-16 04:34N 54°39' W 000°21'1010.4
2017-Jan-16 03:34N 54°33' W 000°06'1211.9
2017-Jan-16 02:34N 54°23' E 000°07'1312.7
2017-Jan-16 01:33N 54°13' E 000°20'1313.2
2017-Jan-16 00:34N 54°03' E 000°34'5610.9
2017-Jan-15 19:26N 53°12' E 001°14'910.5
2017-Jan-15 18:34N 53°07' E 001°26'1212.0
2017-Jan-15 17:34N 52°60' E 001°43'1312.9
2017-Jan-15 16:34N 52°55' E 002°02'7911.3
2017-Jan-15 09:33N 52°05' E 003°43'1010.0
2017-Jan-15 08:33N 52°02' E 003°58'1312.8
2017-Jan-15 07:33N 51°55' E 004°15'3 2.5
2017-Jan-15 06:27N 51°53' E 004°19'0 0.0
2017-Jan-15 05:33N 51°53' E 004°19'0 0.0
2017-Jan-15 04:33N 51°53' E 004°19'0 0.0
2017-Jan-15 03:33N 51°53' E 004°19'0 0.0
2017-Jan-15 02:33N 51°53' E 004°19'0 0.0
2017-Jan-15 01:33N 51°53' E 004°19'0 0.0
2017-Jan-15 00:33N 51°53' E 004°19'0 0.0
2017-Jan-14 23:33N 51°53' E 004°19'0 0.0
2017-Jan-14 22:33N 51°53' E 004°19'0 0.0
2017-Jan-14 21:33N 51°53' E 004°19'0 0.0
2017-Jan-14 20:33N 51°53' E 004°19'  

Dump ship's entire track history